createdAt,value
2022-09-17T00:00:16.023Z,100.00
2022-09-17T00:02:55.885Z,100.00
2022-09-17T00:05:26.752Z,100.00
2022-09-17T00:07:57.058Z,100.00
2022-09-17T00:10:27.586Z,100.00
2022-09-17T00:12:58.352Z,100.00
2022-09-17T00:15:29.058Z,100.00
2022-09-17T00:18:02.530Z,100.00
2022-09-17T00:20:32.793Z,100.00
2022-09-17T00:23:03.277Z,100.00
2022-09-17T00:25:33.852Z,100.00
2022-09-17T00:28:04.720Z,100.00
2022-09-17T00:30:35.541Z,100.00
2022-09-17T00:33:08.913Z,100.00
2022-09-17T00:35:39.164Z,100.00
2022-09-17T00:38:09.875Z,100.00
2022-09-17T00:40:40.568Z,100.00
2022-09-17T00:43:14.971Z,100.00
2022-09-17T00:45:45.610Z,100.00
2022-09-17T00:48:24.889Z,100.00
2022-09-17T00:50:56.247Z,100.00
2022-09-17T00:53:28.065Z,100.00
2022-09-17T00:56:02.569Z,100.00
2022-09-17T00:58:40.469Z,100.00
2022-09-17T01:01:12.173Z,100.00
2022-09-17T01:03:45.752Z,100.00
2022-09-17T01:06:25.820Z,100.00
2022-09-17T01:09:13.536Z,100.00
2022-09-17T01:11:57.888Z,100.00
2022-09-17T01:14:41.604Z,100.00
2022-09-17T01:17:23.093Z,100.00
2022-09-17T01:20:21.985Z,100.00
2022-09-17T01:23:03.454Z,100.00
2022-09-17T01:25:45.869Z,100.00
2022-09-17T01:28:33.826Z,100.00
2022-09-17T01:31:36.214Z,100.00
2022-09-17T01:34:19.795Z,100.00
2022-09-17T01:37:03.440Z,100.00
2022-09-17T01:39:47.280Z,100.00
2022-09-17T01:42:27.818Z,100.00
2022-09-17T01:45:04.318Z,100.00
2022-09-17T01:47:39.930Z,100.00
2022-09-17T01:50:18.359Z,100.00
2022-09-17T01:52:52.724Z,100.00
2022-09-17T01:55:26.198Z,100.00
2022-09-17T01:58:00.632Z,100.00
2022-09-17T02:00:31.652Z,100.00
2022-09-17T02:03:06.521Z,100.00
2022-09-17T02:05:44.771Z,100.00
2022-09-17T02:08:20.133Z,100.00
2022-09-17T02:10:56.019Z,100.00
2022-09-17T02:13:31.423Z,100.00
2022-09-17T02:16:08.894Z,100.00
2022-09-17T02:18:43.568Z,100.00
2022-09-17T02:21:20.676Z,100.00
2022-09-17T02:24:01.132Z,100.00
2022-09-17T02:26:31.894Z,100.00
2022-09-17T02:29:09.577Z,100.00
2022-09-17T02:31:42.770Z,100.00
2022-09-17T02:34:14.588Z,100.00
2022-09-17T02:36:47.761Z,100.00
2022-09-17T02:39:18.363Z,100.00
2022-09-17T02:41:55.832Z,100.00
2022-09-17T02:44:37.875Z,100.00
2022-09-17T02:47:38.007Z,100.00
2022-09-17T02:50:30.098Z,100.00
2022-09-17T02:53:21.625Z,100.00
2022-09-17T02:56:04.331Z,100.00
2022-09-17T02:58:41.281Z,100.00
2022-09-17T03:01:19.454Z,100.00
2022-09-17T03:03:52.473Z,100.00
2022-09-17T03:06:23.330Z,100.00
2022-09-17T03:08:57.808Z,100.00
2022-09-17T03:11:28.225Z,100.00
2022-09-17T03:13:59.174Z,100.00
2022-09-17T03:16:29.499Z,100.00
2022-09-17T03:18:59.809Z,100.00
2022-09-17T03:21:30.351Z,100.00
2022-09-17T03:24:03.435Z,100.00
2022-09-17T03:26:33.865Z,100.00
2022-09-17T03:29:04.286Z,100.00
2022-09-17T03:31:35.064Z,100.00
2022-09-17T03:34:05.530Z,100.00
2022-09-17T03:36:36.001Z,100.00
2022-09-17T03:39:09.031Z,100.00
2022-09-17T03:41:39.898Z,100.00
2022-09-17T03:44:10.797Z,100.00
2022-09-17T03:46:41.550Z,100.00
2022-09-17T03:49:12.190Z,100.00
2022-09-17T03:51:42.548Z,100.00
2022-09-17T03:54:15.938Z,100.00
2022-09-17T03:56:46.380Z,100.00
2022-09-17T03:59:16.566Z,100.00
2022-09-17T04:01:47.006Z,100.00
2022-09-17T04:04:17.346Z,100.00
2022-09-17T04:06:47.458Z,100.00
2022-09-17T04:09:20.804Z,100.00
2022-09-17T04:11:51.168Z,100.00
2022-09-17T04:14:21.744Z,100.00
2022-09-17T04:16:52.019Z,100.00
2022-09-17T04:19:22.550Z,100.00
2022-09-17T04:21:53.306Z,100.00
2022-09-17T04:24:26.361Z,100.00
2022-09-17T04:26:57.041Z,100.00
2022-09-17T04:29:27.826Z,100.00
2022-09-17T04:31:58.813Z,100.00
2022-09-17T04:34:29.583Z,100.00
2022-09-17T04:36:59.880Z,100.00
2022-09-17T04:39:32.568Z,100.00
2022-09-17T04:42:03.276Z,100.00
2022-09-17T04:44:33.684Z,100.00
2022-09-17T04:47:04.124Z,100.00
2022-09-17T04:49:34.511Z,100.00
2022-09-17T04:52:05.623Z,100.00
2022-09-17T04:54:39.310Z,100.00
2022-09-17T04:57:09.504Z,100.00
2022-09-17T04:59:40.833Z,100.00
2022-09-17T05:02:11.690Z,100.00
2022-09-17T05:04:42.189Z,100.00
2022-09-17T05:07:13.986Z,100.00
2022-09-17T05:09:47.312Z,100.00
2022-09-17T05:12:34.370Z,100.00
2022-09-17T05:15:21.224Z,100.00
2022-09-17T05:18:02.414Z,100.00
2022-09-17T05:20:34.468Z,100.00
2022-09-17T05:23:20.975Z,100.00
2022-09-17T05:26:18.158Z,100.00
2022-09-17T05:29:12.796Z,100.00
2022-09-17T05:31:43.264Z,100.00
2022-09-17T05:34:13.918Z,100.00
2022-09-17T05:36:44.485Z,100.00
2022-09-17T05:39:15.064Z,100.00
2022-09-17T05:41:50.976Z,100.00
2022-09-17T05:44:22.076Z,100.00
2022-09-17T05:46:52.617Z,100.00
2022-09-17T05:49:23.049Z,100.00
2022-09-17T05:51:54.721Z,100.00
2022-09-17T05:54:25.203Z,100.00
2022-09-17T05:57:00.534Z,100.00
2022-09-17T05:59:31.329Z,100.00
2022-09-17T06:02:01.802Z,100.00
2022-09-17T06:04:34.917Z,100.00
2022-09-17T06:07:08.669Z,100.00
2022-09-17T06:09:41.089Z,100.00
2022-09-17T06:12:14.110Z,100.00
2022-09-17T06:14:44.372Z,100.00
2022-09-17T06:17:17.021Z,100.00
2022-09-17T06:19:51.078Z,100.00
2022-09-17T06:22:23.545Z,100.00
2022-09-17T06:24:54.138Z,100.00
2022-09-17T06:27:27.638Z,100.00
2022-09-17T06:29:58.592Z,100.00
2022-09-17T06:32:30.148Z,100.00
2022-09-17T06:35:00.653Z,100.00
2022-09-17T06:37:32.172Z,100.00
2022-09-17T06:40:04.635Z,100.00
2022-09-17T06:42:38.330Z,100.00
2022-09-17T06:45:12.201Z,100.00
2022-09-17T06:47:46.564Z,100.00
2022-09-17T06:50:17.220Z,100.00
2022-09-17T06:52:52.690Z,100.00
2022-09-17T06:55:24.009Z,100.00
2022-09-17T06:57:57.512Z,100.00
2022-09-17T07:00:29.053Z,100.00
2022-09-17T07:03:01.816Z,100.00
2022-09-17T07:05:33.213Z,100.00
2022-09-17T07:08:05.574Z,100.00
2022-09-17T07:10:36.120Z,100.00
2022-09-17T07:13:09.418Z,100.00
2022-09-17T07:15:40.793Z,100.00
2022-09-17T07:18:13.228Z,100.00
2022-09-17T07:20:43.680Z,100.00
2022-09-17T07:23:14.379Z,100.00
2022-09-17T07:25:44.881Z,100.00
2022-09-17T07:28:18.611Z,100.00
2022-09-17T07:30:49.628Z,100.00
2022-09-17T07:33:23.676Z,100.00
2022-09-17T07:36:02.958Z,100.00
2022-09-17T07:38:34.461Z,100.00
2022-09-17T07:41:06.746Z,100.00
2022-09-17T07:43:39.837Z,100.00
2022-09-17T07:46:11.600Z,100.00
2022-09-17T07:48:41.878Z,100.00
2022-09-17T07:51:13.237Z,100.00
2022-09-17T07:53:43.761Z,100.00
2022-09-17T07:56:14.198Z,100.00
2022-09-17T07:58:47.262Z,100.00
2022-09-17T08:01:21.355Z,100.00
2022-09-17T08:03:53.663Z,100.00
2022-09-17T08:06:26.313Z,100.00
2022-09-17T08:08:57.004Z,100.00
2022-09-17T08:11:59.828Z,100.00
2022-09-17T08:14:28.421Z,100.00
2022-09-17T08:16:59.894Z,100.00
2022-09-17T08:19:30.045Z,100.00
2022-09-17T08:22:00.263Z,100.00
2022-09-17T08:24:30.874Z,100.00
2022-09-17T08:27:01.466Z,100.00
2022-09-17T08:29:35.443Z,100.00
2022-09-17T08:32:06.849Z,100.00
2022-09-17T08:34:37.650Z,100.00
2022-09-17T08:37:07.946Z,100.00
2022-09-17T08:39:38.492Z,100.00
2022-09-17T08:42:16.501Z,100.00
2022-09-17T08:44:55.200Z,100.00
2022-09-17T08:47:31.736Z,100.00
2022-09-17T08:50:06.277Z,100.00
2022-09-17T08:53:06.736Z,100.00
2022-09-17T08:55:43.328Z,100.00
2022-09-17T08:58:43.634Z,100.00
2022-09-17T09:01:31.038Z,100.00
2022-09-17T09:04:12.134Z,100.00
2022-09-17T09:06:47.782Z,100.00
2022-09-17T09:09:21.270Z,100.00
2022-09-17T09:11:53.001Z,100.00
2022-09-17T09:14:27.733Z,100.00
2022-09-17T09:17:01.884Z,100.00
2022-09-17T09:19:35.569Z,100.00
2022-09-17T09:22:08.921Z,100.00
2022-09-17T09:24:44.754Z,100.00
2022-09-17T09:27:21.206Z,100.00
2022-09-17T09:30:04.287Z,100.00
2022-09-17T09:32:55.634Z,100.00
2022-09-17T09:35:27.905Z,100.00
2022-09-17T09:38:05.007Z,100.00
2022-09-17T09:40:44.984Z,100.00
2022-09-17T09:43:23.468Z,100.00
2022-09-17T09:46:24.857Z,100.00
2022-09-17T09:49:12.117Z,100.00
2022-09-17T09:51:54.126Z,100.00
2022-09-17T09:54:45.331Z,100.00
2022-09-17T09:57:18.289Z,100.00
2022-09-17T09:59:51.524Z,100.00
2022-09-17T10:02:21.887Z,100.00
2022-09-17T10:04:55.052Z,100.00
2022-09-17T10:07:25.200Z,100.00
2022-09-17T10:10:12.280Z,100.00
2022-09-17T10:12:42.840Z,100.00
2022-09-17T10:15:28.624Z,100.00
2022-09-17T10:18:15.792Z,100.00
2022-09-17T10:21:00.010Z,100.00
2022-09-17T10:23:34.041Z,100.00
2022-09-17T10:26:04.180Z,100.00
2022-09-17T10:28:39.271Z,100.00
2022-09-17T10:31:12.411Z,100.00
2022-09-17T10:33:55.603Z,100.00
2022-09-17T10:36:45.278Z,100.00
2022-09-17T10:39:44.598Z,100.00
2022-09-17T10:42:18.160Z,100.00
2022-09-17T10:44:54.670Z,100.00
2022-09-17T10:47:29.280Z,100.00
2022-09-17T10:50:03.362Z,100.00
2022-09-17T10:52:42.360Z,100.00
2022-09-17T10:55:25.529Z,100.00
2022-09-17T10:58:07.715Z,100.00
2022-09-17T11:00:48.686Z,100.00
2022-09-17T11:03:52.101Z,100.00
2022-09-17T11:06:52.565Z,100.00
2022-09-17T11:09:37.751Z,100.00
2022-09-17T11:12:23.621Z,100.00
2022-09-17T11:14:59.171Z,100.00
2022-09-17T11:18:01.297Z,100.00
2022-09-17T11:20:44.867Z,100.00
2022-09-17T11:23:30.880Z,100.00
2022-09-17T11:26:11.735Z,100.00
2022-09-17T11:28:53.568Z,100.00
2022-09-17T11:31:33.878Z,100.00
2022-09-17T11:34:20.670Z,100.00
2022-09-17T11:36:58.157Z,100.00
2022-09-17T11:39:35.261Z,100.00
2022-09-17T11:42:14.024Z,100.00
2022-09-17T11:44:52.701Z,100.00
2022-09-17T11:47:27.347Z,100.00
2022-09-17T11:50:04.232Z,100.00
2022-09-17T11:52:40.642Z,100.00
2022-09-17T11:55:23.826Z,100.00
2022-09-17T11:58:04.071Z,100.00
2022-09-17T12:00:43.268Z,96.93
2022-09-17T12:03:22.230Z,96.50
2022-09-17T12:05:57.206Z,95.95
2022-09-17T12:08:34.604Z,97.10
2022-09-17T12:11:13.210Z,98.29
2022-09-17T12:13:49.611Z,97.09
2022-09-17T12:16:25.076Z,97.59
2022-09-17T12:19:04.442Z,99.86
2022-09-17T12:21:42.402Z,99.25
2022-09-17T12:24:19.716Z,100.00
2022-09-17T12:27:07.761Z,99.17
2022-09-17T12:30:07.539Z,100.00
2022-09-17T12:33:00.720Z,99.46
2022-09-17T12:36:04.496Z,98.02
2022-09-17T12:39:03.528Z,100.00
2022-09-17T12:41:46.459Z,100.00
2022-09-17T12:44:41.178Z,97.68
2022-09-17T12:47:34.635Z,96.20
2022-09-17T12:50:20.858Z,93.47
2022-09-17T12:53:04.144Z,92.33
2022-09-17T12:55:43.881Z,91.22
2022-09-17T12:58:31.890Z,90.70
2022-09-17T13:01:07.882Z,88.26
2022-09-17T13:03:46.556Z,89.58
2022-09-17T13:07:10.553Z,88.16
2022-09-17T13:10:10.329Z,89.43
2022-09-17T13:12:48.095Z,90.64
2022-09-17T13:15:40.657Z,90.96
2022-09-17T13:18:26.483Z,91.92
2022-09-17T13:21:16.826Z,93.05
2022-09-17T13:23:49.589Z,93.45
2022-09-17T13:26:21.859Z,95.17
2022-09-17T13:28:54.015Z,97.55
2022-09-17T13:31:45.313Z,97.46
2022-09-17T13:34:31.446Z,98.87
2022-09-17T13:37:06.360Z,99.13
2022-09-17T13:39:43.972Z,98.87
2022-09-17T13:42:20.610Z,98.94
2022-09-17T13:44:55.079Z,100.00
2022-09-17T13:47:29.396Z,99.53
2022-09-17T13:50:05.257Z,97.57
2022-09-17T13:52:50.673Z,99.92
2022-09-17T13:55:39.970Z,99.94
2022-09-17T13:58:13.960Z,100.00
2022-09-17T14:00:58.974Z,99.39
2022-09-17T14:03:51.071Z,99.09
2022-09-17T14:06:54.384Z,100.00
2022-09-17T14:10:04.719Z,99.00
2022-09-17T14:12:58.417Z,98.37
2022-09-17T14:15:40.650Z,100.00
2022-09-17T14:18:43.632Z,100.00
2022-09-17T14:21:25.829Z,100.00
2022-09-17T14:23:59.986Z,100.00
2022-09-17T14:27:14.401Z,100.00
2022-09-17T14:30:09.189Z,100.00
2022-09-17T14:32:45.469Z,100.00
2022-09-17T14:35:26.350Z,100.00
2022-09-17T14:38:03.222Z,100.00
2022-09-17T14:40:35.593Z,100.00
2022-09-17T14:43:06.641Z,100.00
2022-09-17T14:45:45.273Z,100.00
2022-09-17T14:48:32.041Z,100.00
2022-09-17T14:51:29.829Z,100.00
2022-09-17T14:54:19.473Z,100.00
2022-09-17T14:57:01.367Z,100.00
2022-09-17T14:59:46.431Z,100.00
2022-09-17T15:02:42.073Z,100.00
2022-09-17T15:05:26.158Z,100.00
2022-09-17T15:08:09.243Z,100.00
2022-09-17T15:10:42.273Z,100.00
2022-09-17T15:13:17.761Z,100.00
2022-09-17T15:15:57.580Z,100.00
2022-09-17T15:18:36.813Z,100.00
2022-09-17T15:21:13.426Z,100.00
2022-09-17T15:23:45.919Z,100.00
2022-09-17T15:26:18.447Z,100.00
2022-09-17T15:28:49.120Z,100.00
2022-09-17T15:31:20.946Z,100.00
2022-09-17T15:33:54.157Z,100.00
2022-09-17T15:36:26.811Z,100.00
2022-09-17T15:38:57.682Z,100.00
2022-09-17T15:41:36.139Z,100.00
2022-09-17T15:44:29.736Z,100.00
2022-09-17T15:47:30.572Z,100.00
2022-09-17T15:50:17.486Z,100.00
2022-09-17T15:52:48.351Z,100.00
2022-09-17T15:55:35.838Z,100.00
2022-09-17T15:58:08.682Z,100.00
2022-09-17T16:00:41.889Z,100.00
2022-09-17T16:03:58.501Z,100.00
2022-09-17T16:06:58.055Z,100.00
2022-09-17T16:09:43.559Z,100.00
2022-09-17T16:12:16.974Z,100.00
2022-09-17T16:14:52.037Z,100.00
2022-09-17T16:17:28.703Z,100.00
2022-09-17T16:20:02.587Z,100.00
2022-09-17T16:22:39.151Z,100.00
2022-09-17T16:25:10.437Z,100.00
2022-09-17T16:27:49.456Z,100.00
2022-09-17T16:30:22.002Z,100.00
2022-09-17T16:32:53.115Z,100.00
2022-09-17T16:35:25.968Z,100.00
2022-09-17T16:37:59.677Z,100.00
2022-09-17T16:40:31.797Z,100.00
2022-09-17T16:43:03.729Z,100.00
2022-09-17T16:45:34.437Z,100.00
2022-09-17T16:48:05.779Z,100.00
2022-09-17T16:50:36.568Z,100.00
2022-09-17T16:53:09.808Z,100.00
2022-09-17T16:55:40.091Z,100.00
2022-09-17T16:58:10.207Z,100.00
2022-09-17T17:00:41.436Z,100.00
2022-09-17T17:03:15.204Z,100.00
2022-09-17T17:05:45.539Z,100.00
2022-09-17T17:08:18.825Z,100.00
2022-09-17T17:10:52.999Z,100.00
2022-09-17T17:13:23.272Z,100.00
2022-09-17T17:15:54.240Z,100.00
2022-09-17T17:18:25.221Z,100.00
2022-09-17T17:20:55.280Z,100.00
2022-09-17T17:23:28.228Z,100.00
2022-09-17T17:25:58.315Z,100.00
2022-09-17T17:28:28.817Z,100.00
2022-09-17T17:30:59.262Z,100.00
2022-09-17T17:33:29.582Z,100.00
2022-09-17T17:36:07.834Z,100.00
2022-09-17T17:38:41.766Z,100.00
2022-09-17T17:41:13.669Z,100.00
2022-09-17T17:43:45.075Z,100.00
2022-09-17T17:46:15.925Z,100.00
2022-09-17T17:48:46.937Z,100.00
2022-09-17T17:51:18.747Z,100.00
2022-09-17T17:53:51.416Z,100.00
2022-09-17T17:56:21.575Z,100.00
2022-09-17T17:58:52.084Z,100.00
2022-09-17T18:01:24.695Z,100.00
2022-09-17T18:04:00.213Z,100.00
2022-09-17T18:06:31.610Z,100.00
2022-09-17T18:09:05.438Z,100.00
2022-09-17T18:11:36.394Z,100.00
2022-09-17T18:14:06.602Z,100.00
2022-09-17T18:16:36.752Z,100.00
2022-09-17T18:19:06.972Z,100.00
2022-09-17T18:21:37.110Z,100.00
2022-09-17T18:24:10.012Z,100.00
2022-09-17T18:26:40.218Z,100.00
2022-09-17T18:29:11.855Z,100.00
2022-09-17T18:31:42.295Z,100.00
2022-09-17T18:34:16.227Z,100.00
2022-09-17T18:36:50.773Z,100.00
2022-09-17T18:39:57.115Z,100.00
2022-09-17T18:42:14.756Z,100.00
2022-09-17T18:44:44.818Z,100.00
2022-09-17T18:47:15.241Z,100.00
2022-09-17T18:49:45.354Z,100.00
2022-09-17T18:52:15.412Z,100.00
2022-09-17T18:54:48.685Z,100.00
2022-09-17T18:57:21.393Z,100.00
2022-09-17T18:59:51.554Z,100.00
2022-09-17T19:02:21.901Z,100.00
2022-09-17T19:04:52.006Z,100.00
2022-09-17T19:07:22.167Z,100.00
2022-09-17T19:09:54.963Z,100.00
2022-09-17T19:12:25.050Z,100.00
2022-09-17T19:14:55.249Z,100.00
2022-09-17T19:17:25.475Z,100.00
2022-09-17T19:19:55.595Z,100.00
2022-09-17T19:22:26.725Z,100.00
2022-09-17T19:24:59.449Z,100.00
2022-09-17T19:27:29.844Z,100.00
2022-09-17T19:30:00.721Z,100.00
2022-09-17T19:32:31.977Z,100.00
2022-09-17T19:35:02.573Z,100.00
2022-09-17T19:37:32.693Z,100.00
2022-09-17T19:40:06.832Z,100.00
2022-09-17T19:42:37.346Z,100.00
2022-09-17T19:45:09.375Z,100.00
2022-09-17T19:47:39.813Z,100.00
2022-09-17T19:50:10.772Z,100.00
2022-09-17T19:52:40.860Z,100.00
2022-09-17T19:55:14.746Z,100.00
2022-09-17T19:57:45.006Z,100.00
2022-09-17T20:00:17.092Z,100.00
2022-09-17T20:02:47.429Z,100.00
2022-09-17T20:05:17.911Z,100.00
2022-09-17T20:07:48.151Z,100.00
2022-09-17T20:10:21.249Z,100.00
2022-09-17T20:12:51.367Z,100.00
2022-09-17T20:15:21.962Z,100.00
2022-09-17T20:17:52.304Z,100.00
2022-09-17T20:20:24.149Z,100.00
2022-09-17T20:22:55.123Z,100.00
2022-09-17T20:25:27.942Z,100.00
2022-09-17T20:27:58.156Z,100.00
2022-09-17T20:30:31.407Z,100.00
2022-09-17T20:33:01.520Z,100.00
2022-09-17T20:35:31.845Z,100.00
2022-09-17T20:39:06.750Z,100.00
2022-09-17T20:40:54.825Z,100.00
2022-09-17T20:43:25.068Z,100.00
2022-09-17T20:45:58.989Z,100.00
2022-09-17T20:48:29.188Z,100.00
2022-09-17T20:51:00.392Z,100.00
2022-09-17T20:53:31.816Z,100.00
2022-09-17T20:56:06.748Z,100.00
2022-09-17T20:58:45.524Z,100.00
2022-09-17T21:01:20.914Z,100.00
2022-09-17T21:03:52.860Z,100.00
2022-09-17T21:06:24.643Z,100.00
2022-09-17T21:08:56.066Z,100.00
2022-09-17T21:11:29.259Z,100.00
2022-09-17T21:13:59.602Z,100.00
2022-09-17T21:16:30.230Z,100.00
2022-09-17T21:19:02.402Z,100.00
2022-09-17T21:21:34.583Z,100.00
2022-09-17T21:24:05.769Z,100.00
2022-09-17T21:26:38.979Z,100.00
2022-09-17T21:29:09.321Z,100.00
2022-09-17T21:31:39.903Z,100.00
2022-09-17T21:34:13.167Z,100.00
2022-09-17T21:36:45.434Z,100.00
2022-09-17T21:39:17.083Z,100.00
2022-09-17T21:41:51.175Z,100.00
2022-09-17T21:44:21.217Z,100.00
2022-09-17T21:46:57.078Z,100.00
2022-09-17T21:49:27.429Z,100.00
2022-09-17T21:51:57.533Z,100.00
2022-09-17T21:54:28.525Z,100.00
2022-09-17T21:57:02.098Z,100.00
2022-09-17T21:59:32.332Z,100.00
2022-09-17T22:02:02.788Z,100.00
2022-09-17T22:04:34.722Z,100.00
2022-09-17T22:07:05.317Z,100.00
2022-09-17T22:09:35.622Z,100.00
2022-09-17T22:12:19.281Z,100.00
2022-09-17T22:14:54.326Z,100.00
2022-09-17T22:17:25.222Z,100.00
2022-09-17T22:19:56.347Z,100.00
2022-09-17T22:22:27.658Z,100.00
2022-09-17T22:24:59.189Z,100.00
2022-09-17T22:27:34.362Z,100.00
2022-09-17T22:30:09.127Z,100.00
2022-09-17T22:32:39.863Z,100.00
2022-09-17T22:35:13.743Z,100.00
2022-09-17T22:37:46.583Z,100.00
2022-09-17T22:40:18.312Z,100.00
2022-09-17T22:42:53.632Z,100.00
2022-09-17T22:45:26.253Z,100.00
2022-09-17T22:48:00.150Z,100.00
2022-09-17T22:50:34.712Z,100.00
2022-09-17T22:53:05.066Z,100.00
2022-09-17T22:55:35.717Z,100.00
2022-09-17T22:58:09.043Z,100.00
2022-09-17T23:00:44.025Z,100.00
2022-09-17T23:03:16.369Z,100.00
2022-09-17T23:05:48.710Z,100.00
2022-09-17T23:08:19.235Z,100.00
2022-09-17T23:10:49.639Z,100.00
2022-09-17T23:13:23.135Z,100.00
2022-09-17T23:15:53.713Z,100.00
2022-09-17T23:18:25.765Z,100.00
2022-09-17T23:21:10.113Z,100.00
2022-09-17T23:23:40.483Z,100.00
2022-09-17T23:26:13.618Z,100.00
2022-09-17T23:28:46.488Z,100.00
2022-09-17T23:31:19.217Z,100.00
2022-09-17T23:33:52.837Z,100.00
2022-09-17T23:36:25.581Z,100.00
2022-09-17T23:38:57.431Z,100.00
2022-09-17T23:41:30.035Z,100.00
2022-09-17T23:44:04.731Z,100.00
2022-09-17T23:46:37.801Z,100.00
2022-09-17T23:49:08.590Z,100.00
2022-09-17T23:51:39.913Z,100.00
2022-09-17T23:54:10.276Z,100.00
2022-09-17T23:56:40.598Z,100.00
2022-09-17T23:59:14.235Z,100.00
